Flight Track Log - Related Links

Times and Time Zones

All times are in EDT time to prevent confusion due to time zone crossing. See the SWA2436 flight status page for this flight to view local times or setup timezone preferences in your user account.

Time Position Orientation Groundspeed Altitude Reporting Facility
EDT Latitude Longitude Course Direction KTS MPH feet Rate Location/Type
Mon 08:29:11 PM 28.3667 -81.3333 221° Southwest 224 258 5,000  Level Orlando TRACON
Mon 08:29:53 PM 28.3333 -81.3833 233° Southwest 280 322 7,500 1,490 Climbing Orlando TRACON
Mon 08:31:40 PM 28.3494 -81.5364 277° West 298 343 8,700 1,617 Climbing Jacksonville Center
Mon 08:32:40 PM 28.3567 -81.6331 275° West 288 331 12,000 3,600 Climbing Jacksonville Center
Mon 08:33:40 PM 28.3661 -81.7436 276° West 326 375 15,900 3,850 Climbing Jacksonville Center
Mon 08:34:40 PM 28.3481 -81.8525 259° West 358 412 19,700 3,650 Climbing Jacksonville Center
Mon 08:35:40 PM 28.3261 -81.9706 258° West 375 432 23,200 3,400 Climbing Jacksonville Center
Mon 08:36:40 PM 28.2997 -82.0911 256° West 386 444 26,500 3,000 Climbing Jacksonville Center
Mon 08:37:40 PM 28.2714 -82.2161 256° West 399 459 29,200 2,567 Climbing Jacksonville Center
Mon 08:40:08 PM 28.1992 -82.5239 255° West 412 474 35,400 2,625 Climbing Miami Center
Mon 08:41:08 PM 28.1731 -82.6567 257° West 407 468 38,300 2,250 Climbing Miami Center
Mon 08:42:08 PM 28.1475 -82.7708 256° West 401 461 39,900 850 Climbing Miami Center
Mon 08:43:08 PM 28.1197 -82.8869 255° West 390 449 40,000 50 Climbing Miami Center
Mon 08:44:08 PM 28.0942 -83.0031 256° West 390 449 40,000  Level Miami Center
Mon 08:45:08 PM 28.0681 -83.1217 256° West 395 455 40,000  Level Miami Center
Mon 08:46:08 PM 28.0442 -83.2378 257° West 395 455 40,000  Level Miami Center
Mon 08:47:08 PM 28.0142 -83.3511 253° West 390 449 40,000  Level Miami Center
Mon 08:48:08 PM 27.9961 -83.4700 260° West 390 449 40,000  Level Miami Center
Mon 08:49:08 PM 27.9864 -83.5917 265° West 390 449 40,000  Level Miami Center
Mon 08:50:08 PM 27.9828 -83.7089 268° West 385 443 40,000  Level Miami Center
Mon 08:51:08 PM 27.9708 -83.8278 264° West 385 443 40,000  Level Miami Center
Mon 08:52:08 PM 27.9672 -83.9450 268° West 385 443 40,000  Level Miami Center
Mon 08:53:08 PM 27.9611 -84.0667 267° West 385 443 40,000  Level Miami Center
Mon 08:54:08 PM 27.9489 -84.1856 263° West 385 443 40,000  Level Miami Center
Mon 08:55:08 PM 27.9447 -84.3050 268° West 385 443 40,000  Level Miami Center
Mon 08:56:40 PM 27.9358 -84.4733 267° West 387 445 40,000  Level Jacksonville Center
Mon 08:57:40 PM 27.9258 -84.5908 265° West 387 445 40,000  Level Jacksonville Center
Mon 08:58:40 PM 27.9222 -84.7150 268° West 387 445 40,000  Level Jacksonville Center
Mon 08:59:40 PM 27.9119 -84.8325 264° West 387 445 40,000  Level Jacksonville Center
Mon 09:00:40 PM 27.9039 -84.9519 266° West 377 434 40,000  Level Jacksonville Center
Mon 09:01:40 PM 27.8978 -85.0692 267° West 385 443 40,000  Level Jacksonville Center
Mon 09:02:40 PM 27.8897 -85.1842 265° West 385 443 40,000  Level Jacksonville Center
Mon 09:03:40 PM 27.8956 -85.3133 273° West 386 444 40,000  Level Jacksonville Center
Mon 09:04:40 PM 27.9311 -85.4222 290° West 377 434 40,000  Level Jacksonville Center
Mon 09:05:40 PM 27.9683 -85.5431 289° West 387 445 40,000  Level Jacksonville Center
Mon 09:06:40 PM 28.0036 -85.6519 290° West 388 447 40,000  Level Jacksonville Center
Mon 09:07:40 PM 28.0364 -85.7681 288° West 388 447 40,000  Level Jacksonville Center
Mon 09:08:40 PM 28.0714 -85.8797 290° West 383 441 40,000  Level Jacksonville Center
Mon 09:09:40 PM 28.1064 -85.9936 289° West 383 441 40,000  Level Jacksonville Center
Mon 09:10:40 PM 28.1411 -86.1078 289° West 383 441 40,000  Level Jacksonville Center
Mon 09:11:40 PM 28.1736 -86.2217 288° West 388 447 40,000  Level Jacksonville Center
Mon 09:12:40 PM 28.2061 -86.3358 288° West 383 441 40,000  Level Jacksonville Center
Mon 09:13:40 PM 28.2444 -86.4572 290° West 396 456 40,000  Level Jacksonville Center
Mon 09:14:40 PM 28.2747 -86.5667 287° West 385 443 40,000  Level Jacksonville Center
Mon 09:15:40 PM 28.3089 -86.6858 288° West 391 450 40,000  Level Jacksonville Center
Mon 09:16:40 PM 28.3431 -86.7956 290° West 384 442 40,000  Level Jacksonville Center
Mon 09:17:40 PM 28.3750 -86.9100 288° West 384 442 40,000  Level Jacksonville Center
Mon 09:18:40 PM 28.4089 -87.0269 288° West 384 442 40,000  Level Jacksonville Center
Mon 09:20:49 PM 28.4808 -87.2708 289° West 383 441 40,000  Level Houston Center
Mon 09:21:50 PM 28.5139 -87.3861 288° West 384 442 40,000  Level Houston Center
Mon 09:22:52 PM 28.5464 -87.5019 288° West 386 444 40,000  Level Houston Center
Mon 09:23:53 PM 28.5806 -87.6167 289° West 385 443 40,000  Level Houston Center
Mon 09:24:54 PM 28.6131 -87.7333 288° West 386 444 40,000  Level Houston Center
Mon 09:25:55 PM 28.6525 -87.8742 288° West 388 447 40,000  Level Houston Center
Mon 09:26:57 PM 28.6858 -87.9908 288° West 388 447 40,000  Level Houston Center
Mon 09:27:58 PM 28.7153 -88.0953 288° West 389 448 40,000  Level Houston Center
Mon 09:28:59 PM 28.7486 -88.2133 288° West 391 450 40,000  Level Houston Center
Mon 09:30:00 PM 28.7806 -88.3297 287° West 387 445 40,000  Level Houston Center
Mon 09:31:01 PM 28.8194 -88.4719 287° West 392 451 40,000 -927 Level Houston Center
Mon 09:32:03 PM 28.8517 -88.5869 288° West 383 441 38,100 -2,195 Descending Houston Center
Mon 09:33:04 PM 28.8858 -88.7022 289° West 384 442 35,500 -1,672 Descending Houston Center
Mon 09:34:05 PM 28.9575 -88.8006 310° West 401 461 34,700 -885 Descending Houston Center
Mon 09:35:06 PM 29.0333 -88.8989 311° West 413 475 33,700 -1,230 Descending Houston Center
Mon 09:36:07 PM 29.1050 -88.9950 310° West 401 461 32,200 -1,805 Descending Houston Center
Mon 09:37:09 PM 29.1736 -89.0864 311° West 383 441 30,000 -2,146 Descending Houston Center
Mon 09:38:10 PM 29.2389 -89.1786 309° West 375 432 27,800 -2,115 Descending Houston Center
Mon 09:39:11 PM 29.3053 -89.2636 312° West 363 418 25,700 -2,115 Descending Houston Center
Mon 09:40:12 PM 29.3736 -89.3539 311° West 377 434 23,500 -2,410 Descending Houston Center
Mon 09:41:13 PM 29.4556 -89.4678 310° West 386 444 20,800 -2,478 Descending Houston Center
Mon 09:41:44 PM 29.4875 -89.5114 310° West 385 443 19,700 -2,262 Descending Houston Center
Mon 09:42:14 PM 29.5253 -89.5614 311° West 384 442 18,500 -2,291 Descending Houston Center
Mon 09:42:39 PM 29.5511 -89.5967 310° West 382 440 17,600 -2,262 Descending Houston Center
Mon 09:43:15 PM 29.5894 -89.6544 307° West 376 433 16,200 -2,066 Descending Houston Center
Mon 09:43:40 PM 29.6128 -89.6872 309° West 356 410 15,500 -1,645 Descending Houston Center
Mon 09:44:17 PM 29.6492 -89.7403 308° West 355 409 14,500 -1,778 Descending Houston Center
Mon 09:44:34 PM 29.6656 -89.7639 309° West 327 376 13,900 -3,049 Descending Houston Center
Mon 09:45:18 PM 29.7061 -89.8183 311° West 331 381 11,400 -3,836 Descending Houston Center
Mon 09:45:35 PM 29.7247 -89.8450 309° West 325 374 10,000 -1,967 Descending Houston Center
Mon 09:46:19 PM 29.7678 -89.9019 311° West 336 387 9,400 -1,180 Descending Houston Center
Mon 09:46:36 PM 29.7858 -89.9236 314° West 331 381 8,800 -1,672 Descending Houston Center
Mon 09:47:20 PM 29.8247 -89.9744 311° West 319 367 7,700 -1,800 Descending Houston Center
Mon 09:47:36 PM 29.8447 -89.9978 315° West 284 327 7,000 -1,967 Descending Houston Center
Mon 09:48:21 PM 29.8783 -90.0425 311° West 298 343 5,700 -1,642 Descending Houston Center
Mon 09:49:22 PM 29.9325 -90.1136 311° West 295 339 4,100 -1,325 Descending Houston Center
Mon 09:49:38 PM 29.9494 -90.1397 307° West 294 338 4,000 -885 Descending Houston Center
Mon 09:50:23 PM 29.9953 -90.1581 341° North 286 329 3,200 -1,300 Descending Houston Center
Mon 09:50:38 PM 30.0214 -90.1656 346° North 270 311 2,700 -1,279 Descending Houston Center
Mon 09:51:24 PM 30.0697 -90.1753 350° North 278 320 1,900 -561 Descending Houston Center
Mon 09:52:25 PM 30.0964 -90.2192 305° West 230 265 1,700 -341 Descending Houston Center
Mon 09:53:27 PM 30.0611 -90.2283 193° South 164 189 1,200 -646 Descending Houston Center
Mon 09:54:35 PM 30.0156 -90.2428 195° South 122 140 300 -794 Descending Houston Center
Mon 09:56:00 PM 29.9833 -90.2500 196° South  Level FlightAware Approximate

Login

Don't have an account? Register now (free) for customized features, flight alerts, and more!